sensor_id;sensor_type;location;lat;lon;timestamp;pressure;altitude;pressure_sealevel;temperature;humidity
59859;BME280;45734;53.648;9.566;2022-10-31T00:04:48;101828.44;;;11.45;100.00
59859;BME280;45734;53.648;9.566;2022-10-31T00:09:48;101834.91;;;11.62;100.00
59859;BME280;45734;53.648;9.566;2022-10-31T00:14:49;101820.72;;;11.81;100.00
59859;BME280;45734;53.648;9.566;2022-10-31T00:19:49;101822.41;;;11.92;100.00
59859;BME280;45734;53.648;9.566;2022-10-31T00:24:49;101828.88;;;11.99;100.00
59859;BME280;45734;53.648;9.566;2022-10-31T00:29:49;101827.59;;;12.03;100.00
59859;BME280;45734;53.648;9.566;2022-10-31T00:34:50;101843.19;;;12.08;100.00
59859;BME280;45734;53.648;9.566;2022-10-31T00:39:50;101835.44;;;12.14;100.00
59859;BME280;45734;53.648;9.566;2022-10-31T00:44:50;101837.97;;;12.16;100.00
59859;BME280;45734;53.648;9.566;2022-10-31T00:49:51;101842.56;;;12.23;100.00
59859;BME280;45734;53.648;9.566;2022-10-31T00:54:51;101846.50;;;12.29;100.00
59859;BME280;45734;53.648;9.566;2022-10-31T00:59:51;101854.38;;;12.31;100.00
59859;BME280;45734;53.648;9.566;2022-10-31T01:04:51;101855.03;;;12.33;100.00
59859;BME280;45734;53.648;9.566;2022-10-31T01:09:52;101867.84;;;12.29;100.00
59859;BME280;45734;53.648;9.566;2022-10-31T01:14:52;101873.78;;;12.23;100.00
59859;BME280;45734;53.648;9.566;2022-10-31T01:19:52;101868.84;;;12.18;100.00
59859;BME280;45734;53.648;9.566;2022-10-31T01:24:53;101887.16;;;12.13;100.00
59859;BME280;45734;53.648;9.566;2022-10-31T01:29:54;101894.06;;;12.16;100.00
59859;BME280;45734;53.648;9.566;2022-10-31T01:34:55;101900.06;;;12.18;100.00
59859;BME280;45734;53.648;9.566;2022-10-31T01:39:55;101892.78;;;12.20;100.00
59859;BME280;45734;53.648;9.566;2022-10-31T01:44:58;101904.41;;;12.29;100.00
59859;BME280;45734;53.648;9.566;2022-10-31T01:50:00;101904.94;;;12.42;100.00
59859;BME280;45734;53.648;9.566;2022-10-31T01:55:06;101908.03;;;12.47;100.00
59859;BME280;45734;53.648;9.566;2022-10-31T02:00:09;101907.19;;;12.46;100.00
59859;BME280;45734;53.648;9.566;2022-10-31T02:05:13;101923.81;;;12.40;100.00
59859;BME280;45734;53.648;9.566;2022-10-31T02:10:15;101914.66;;;12.33;100.00
59859;BME280;45734;53.648;9.566;2022-10-31T02:15:15;101931.13;;;12.29;100.00
59859;BME280;45734;53.648;9.566;2022-10-31T02:20:23;101934.38;;;12.22;100.00
59859;BME280;45734;53.648;9.566;2022-10-31T02:36:01;101939.00;;;12.20;100.00
59859;BME280;45734;53.648;9.566;2022-10-31T02:46:32;101948.31;;;12.16;100.00
59859;BME280;45734;53.648;9.566;2022-10-31T02:51:34;101948.59;;;12.13;100.00
59859;BME280;45734;53.648;9.566;2022-10-31T02:56:34;101947.47;;;12.06;100.00
59859;BME280;45734;53.648;9.566;2022-10-31T03:17:23;101976.13;;;11.94;100.00
59859;BME280;45734;53.648;9.566;2022-10-31T03:22:27;101980.63;;;11.94;100.00
59859;BME280;45734;53.648;9.566;2022-10-31T03:27:32;101974.16;;;11.87;100.00
59859;BME280;45734;53.648;9.566;2022-10-31T03:32:41;101975.41;;;11.83;100.00
59859;BME280;45734;53.648;9.566;2022-10-31T03:37:44;101989.03;;;11.79;100.00
59859;BME280;45734;53.648;9.566;2022-10-31T03:42:52;101992.09;;;11.75;100.00
59859;BME280;45734;53.648;9.566;2022-10-31T03:47:54;101998.59;;;11.72;100.00
59859;BME280;45734;53.648;9.566;2022-10-31T03:58:51;102014.44;;;11.64;100.00
59859;BME280;45734;53.648;9.566;2022-10-31T04:03:56;102013.72;;;11.62;100.00
59859;BME280;45734;53.648;9.566;2022-10-31T04:09:00;102009.78;;;11.56;100.00
59859;BME280;45734;53.648;9.566;2022-10-31T04:14:03;102013.09;;;11.49;100.00
59859;BME280;45734;53.648;9.566;2022-10-31T04:19:04;102015.34;;;11.44;100.00
59859;BME280;45734;53.648;9.566;2022-10-31T04:24:05;102017.44;;;11.40;100.00
59859;BME280;45734;53.648;9.566;2022-10-31T04:29:05;102018.69;;;11.36;100.00
59859;BME280;45734;53.648;9.566;2022-10-31T04:34:05;102016.03;;;11.36;100.00
59859;BME280;45734;53.648;9.566;2022-10-31T04:39:07;102024.31;;;11.43;100.00
59859;BME280;45734;53.648;9.566;2022-10-31T04:44:07;102029.97;;;11.49;100.00
59859;BME280;45734;53.648;9.566;2022-10-31T04:49:07;102027.88;;;11.53;100.00
59859;BME280;45734;53.648;9.566;2022-10-31T04:54:08;102031.13;;;11.56;100.00
59859;BME280;45734;53.648;9.566;2022-10-31T04:59:08;102033.38;;;11.61;100.00
59859;BME280;45734;53.648;9.566;2022-10-31T05:04:08;102037.72;;;11.62;100.00
59859;BME280;45734;53.648;9.566;2022-10-31T05:09:08;102034.06;;;11.63;100.00
59859;BME280;45734;53.648;9.566;2022-10-31T05:14:09;102024.53;;;11.61;100.00
59859;BME280;45734;53.648;9.566;2022-10-31T05:19:09;102022.13;;;11.57;100.00
59859;BME280;45734;53.648;9.566;2022-10-31T05:24:09;102017.94;;;11.55;100.00
59859;BME280;45734;53.648;9.566;2022-10-31T05:29:10;102014.53;;;11.53;100.00
59859;BME280;45734;53.648;9.566;2022-10-31T05:34:10;102027.44;;;11.48;100.00
59859;BME280;45734;53.648;9.566;2022-10-31T05:39:10;102035.44;;;11.48;100.00
59859;BME280;45734;53.648;9.566;2022-10-31T05:44:11;102036.56;;;11.45;100.00
59859;BME280;45734;53.648;9.566;2022-10-31T05:49:11;102042.88;;;11.44;100.00
59859;BME280;45734;53.648;9.566;2022-10-31T05:54:11;102042.03;;;11.44;100.00
59859;BME280;45734;53.648;9.566;2022-10-31T05:59:11;102045.09;;;11.39;100.00
59859;BME280;45734;53.648;9.566;2022-10-31T06:04:12;102042.16;;;11.42;100.00
59859;BME280;45734;53.648;9.566;2022-10-31T06:09:12;102036.25;;;11.39;100.00
59859;BME280;45734;53.648;9.566;2022-10-31T06:14:12;102047.19;;;11.36;100.00
59859;BME280;45734;53.648;9.566;2022-10-31T06:19:12;102050.41;;;11.29;100.00
59859;BME280;45734;53.648;9.566;2022-10-31T06:24:13;102054.31;;;11.25;100.00
59859;BME280;45734;53.648;9.566;2022-10-31T06:29:14;102047.56;;;11.21;100.00
59859;BME280;45734;53.648;9.566;2022-10-31T06:34:15;102061.28;;;11.17;100.00
59859;BME280;45734;53.648;9.566;2022-10-31T06:39:15;102067.75;;;11.14;100.00
59859;BME280;45734;53.648;9.566;2022-10-31T06:44:15;102061.69;;;11.12;100.00
59859;BME280;45734;53.648;9.566;2022-10-31T06:49:16;102076.84;;;11.12;100.00
59859;BME280;45734;53.648;9.566;2022-10-31T06:54:16;102082.31;;;11.10;100.00
59859;BME280;45734;53.648;9.566;2022-10-31T06:59:17;102099.97;;;11.11;100.00
59859;BME280;45734;53.648;9.566;2022-10-31T07:04:17;102098.03;;;11.13;100.00
59859;BME280;45734;53.648;9.566;2022-10-31T07:09:18;102105.50;;;11.19;100.00
59859;BME280;45734;53.648;9.566;2022-10-31T07:14:18;102114.94;;;11.23;100.00
59859;BME280;45734;53.648;9.566;2022-10-31T07:19:18;102107.66;;;11.25;100.00
59859;BME280;45734;53.648;9.566;2022-10-31T07:24:19;102106.81;;;11.25;100.00
59859;BME280;45734;53.648;9.566;2022-10-31T07:29:19;102102.56;;;11.22;100.00
59859;BME280;45734;53.648;9.566;2022-10-31T07:34:19;102111.56;;;11.21;100.00
59859;BME280;45734;53.648;9.566;2022-10-31T07:39:19;102106.34;;;11.20;100.00
59859;BME280;45734;53.648;9.566;2022-10-31T07:44:20;102107.06;;;11.22;100.00
59859;BME280;45734;53.648;9.566;2022-10-31T07:49:20;102127.19;;;11.26;100.00
59859;BME280;45734;53.648;9.566;2022-10-31T07:54:20;102133.09;;;11.29;100.00
59859;BME280;45734;53.648;9.566;2022-10-31T07:59:21;102132.94;;;11.31;100.00
59859;BME280;45734;53.648;9.566;2022-10-31T08:04:21;102137.44;;;11.30;100.00
59859;BME280;45734;53.648;9.566;2022-10-31T08:09:21;102133.22;;;11.28;100.00
59859;BME280;45734;53.648;9.566;2022-10-31T08:14:22;102124.38;;;11.27;100.00
59859;BME280;45734;53.648;9.566;2022-10-31T08:19:22;102131.56;;;11.37;100.00
59859;BME280;45734;53.648;9.566;2022-10-31T08:24:25;102136.19;;;11.55;100.00
59859;BME280;45734;53.648;9.566;2022-10-31T08:29:25;102127.66;;;11.71;100.00
59859;BME280;45734;53.648;9.566;2022-10-31T08:34:26;102134.84;;;11.81;100.00
59859;BME280;45734;53.648;9.566;2022-10-31T08:39:26;102129.88;;;11.87;100.00
59859;BME280;45734;53.648;9.566;2022-10-31T08:44:26;102136.94;;;12.08;100.00
59859;BME280;45734;53.648;9.566;2022-10-31T08:49:26;102134.84;;;12.11;100.00
59859;BME280;45734;53.648;9.566;2022-10-31T08:54:27;102139.78;;;12.26;100.00
59859;BME280;45734;53.648;9.566;2022-10-31T08:59:27;102146.00;;;12.45;100.00
59859;BME280;45734;53.648;9.566;2022-10-31T09:04:27;102140.94;;;12.52;100.00
59859;BME280;45734;53.648;9.566;2022-10-31T09:09:28;102130.53;;;12.59;100.00
59859;BME280;45734;53.648;9.566;2022-10-31T09:14:28;102116.31;;;12.87;100.00
59859;BME280;45734;53.648;9.566;2022-10-31T09:19:28;102112.06;;;13.04;100.00
59859;BME280;45734;53.648;9.566;2022-10-31T09:24:28;102124.69;;;13.22;100.00
59859;BME280;45734;53.648;9.566;2022-10-31T09:29:29;102117.25;;;13.16;100.00
59859;BME280;45734;53.648;9.566;2022-10-31T09:34:29;102124.56;;;13.33;100.00
59859;BME280;45734;53.648;9.566;2022-10-31T09:39:29;102130.13;;;13.49;100.00
59859;BME280;45734;53.648;9.566;2022-10-31T09:54:58;102151.56;;;13.40;100.00
59859;BME280;45734;53.648;9.566;2022-10-31T10:00:00;102150.47;;;13.32;100.00
59859;BME280;45734;53.648;9.566;2022-10-31T10:05:03;102151.44;;;13.22;100.00
59859;BME280;45734;53.648;9.566;2022-10-31T10:10:17;102155.84;;;13.13;100.00
59859;BME280;45734;53.648;9.566;2022-10-31T10:26:18;102154.56;;;13.07;100.00
59859;BME280;45734;53.648;9.566;2022-10-31T10:31:30;102149.94;;;13.09;100.00
59859;BME280;45734;53.648;9.566;2022-10-31T10:36:41;102144.00;;;13.06;100.00
59859;BME280;45734;53.648;9.566;2022-10-31T10:41:46;102144.28;;;13.12;100.00
59859;BME280;45734;53.648;9.566;2022-10-31T10:46:56;102130.03;;;13.22;100.00
59859;BME280;45734;53.648;9.566;2022-10-31T11:02:32;102116.00;;;13.57;100.00
59859;BME280;45734;53.648;9.566;2022-10-31T11:07:39;102105.41;;;13.65;100.00
59859;BME280;45734;53.648;9.566;2022-10-31T11:12:40;102108.03;;;13.75;100.00
59859;BME280;45734;53.648;9.566;2022-10-31T11:17:41;102103.19;;;13.88;100.00
59859;BME280;45734;53.648;9.566;2022-10-31T11:22:46;102105.25;;;13.94;100.00
59859;BME280;45734;53.648;9.566;2022-10-31T11:27:47;102112.50;;;14.12;100.00
59859;BME280;45734;53.648;9.566;2022-10-31T11:32:49;102106.34;;;14.19;100.00
59859;BME280;45734;53.648;9.566;2022-10-31T11:37:53;102097.16;;;14.04;100.00
59859;BME280;45734;53.648;9.566;2022-10-31T11:42:57;102095.91;;;13.98;100.00
59859;BME280;45734;53.648;9.566;2022-10-31T11:48:00;102090.56;;;13.98;100.00
59859;BME280;45734;53.648;9.566;2022-10-31T11:53:02;102093.09;;;14.00;100.00
59859;BME280;45734;53.648;9.566;2022-10-31T11:58:04;102076.56;;;14.04;100.00
59859;BME280;45734;53.648;9.566;2022-10-31T12:03:12;102086.31;;;14.06;100.00
59859;BME280;45734;53.648;9.566;2022-10-31T12:08:14;102089.13;;;14.04;100.00
59859;BME280;45734;53.648;9.566;2022-10-31T12:13:33;102081.38;;;14.01;100.00
59859;BME280;45734;53.648;9.566;2022-10-31T12:29:17;102077.03;;;14.00;100.00
59859;BME280;45734;53.648;9.566;2022-10-31T12:40:04;102068.38;;;14.24;100.00
59859;BME280;45734;53.648;9.566;2022-10-31T12:45:36;102061.28;;;14.15;100.00
59859;BME280;45734;53.648;9.566;2022-10-31T13:01:58;102051.69;;;13.67;100.00
59859;BME280;45734;53.648;9.566;2022-10-31T13:07:04;102060.13;;;13.72;100.00
59859;BME280;45734;53.648;9.566;2022-10-31T13:12:11;102052.81;;;13.74;100.00
59859;BME280;45734;53.648;9.566;2022-10-31T13:17:24;102039.84;;;13.69;100.00
59859;BME280;45734;53.648;9.566;2022-10-31T13:22:27;102023.25;;;13.66;100.00
59859;BME280;45734;53.648;9.566;2022-10-31T13:27:45;102034.81;;;13.66;100.00
59859;BME280;45734;53.648;9.566;2022-10-31T13:32:54;102027.28;;;13.52;100.00
59859;BME280;45734;53.648;9.566;2022-10-31T13:38:16;102020.44;;;13.40;100.00
59859;BME280;45734;53.648;9.566;2022-10-31T13:48:41;101985.88;;;13.19;100.00
59859;BME280;45734;53.648;9.566;2022-10-31T14:04:23;101960.03;;;13.00;100.00
59859;BME280;45734;53.648;9.566;2022-10-31T14:09:26;101941.19;;;13.01;100.00
59859;BME280;45734;53.648;9.566;2022-10-31T14:14:33;101942.84;;;13.02;100.00
59859;BME280;45734;53.648;9.566;2022-10-31T14:19:34;101924.44;;;12.99;100.00
59859;BME280;45734;53.648;9.566;2022-10-31T14:24:36;101910.66;;;12.94;100.00
59859;BME280;45734;53.648;9.566;2022-10-31T14:29:36;101902.38;;;12.87;100.00
59859;BME280;45734;53.648;9.566;2022-10-31T14:34:42;101885.56;;;12.77;100.00
59859;BME280;45734;53.648;9.566;2022-10-31T14:40:03;101885.75;;;12.66;100.00
59859;BME280;45734;53.648;9.566;2022-10-31T14:50:41;101902.97;;;12.54;100.00
59859;BME280;45734;53.648;9.566;2022-10-31T14:55:46;101891.81;;;12.58;100.00
59859;BME280;45734;53.648;9.566;2022-10-31T15:00:53;101894.19;;;12.61;100.00
59859;BME280;45734;53.648;9.566;2022-10-31T15:05:58;101889.16;;;12.58;100.00
59859;BME280;45734;53.648;9.566;2022-10-31T15:11:03;101880.59;;;12.55;100.00
59859;BME280;45734;53.648;9.566;2022-10-31T15:16:10;101866.09;;;12.48;100.00
59859;BME280;45734;53.648;9.566;2022-10-31T15:21:15;101856.72;;;12.43;100.00
59859;BME280;45734;53.648;9.566;2022-10-31T15:26:21;101829.88;;;12.35;100.00
59859;BME280;45734;53.648;9.566;2022-10-31T15:31:21;101827.78;;;12.29;100.00
59859;BME280;45734;53.648;9.566;2022-10-31T15:36:23;101818.69;;;12.22;100.00
59859;BME280;45734;53.648;9.566;2022-10-31T15:41:36;101819.28;;;12.16;100.00
59859;BME280;45734;53.648;9.566;2022-10-31T15:46:40;101830.09;;;12.14;100.00
59859;BME280;45734;53.648;9.566;2022-10-31T15:51:40;101821.06;;;12.15;100.00
59859;BME280;45734;53.648;9.566;2022-10-31T15:56:43;101822.91;;;12.15;100.00
59859;BME280;45734;53.648;9.566;2022-10-31T16:02:00;101829.38;;;12.12;100.00
59859;BME280;45734;53.648;9.566;2022-10-31T16:07:21;101846.41;;;12.11;100.00
59859;BME280;45734;53.648;9.566;2022-10-31T16:12:23;101836.00;;;12.08;100.00
59859;BME280;45734;53.648;9.566;2022-10-31T16:17:26;101833.34;;;12.08;100.00
59859;BME280;45734;53.648;9.566;2022-10-31T16:22:29;101812.25;;;12.05;100.00
59859;BME280;45734;53.648;9.566;2022-10-31T16:27:32;101793.31;;;11.98;100.00
59859;BME280;45734;53.648;9.566;2022-10-31T16:32:34;101810.59;;;11.94;100.00
59859;BME280;45734;53.648;9.566;2022-10-31T16:37:41;101815.94;;;11.94;100.00
59859;BME280;45734;53.648;9.566;2022-10-31T16:42:43;101817.91;;;11.92;100.00
59859;BME280;45734;53.648;9.566;2022-10-31T16:47:44;101793.03;;;11.92;100.00
59859;BME280;45734;53.648;9.566;2022-10-31T16:52:44;101800.38;;;11.90;100.00
59859;BME280;45734;53.648;9.566;2022-10-31T16:57:51;101797.00;;;11.88;100.00
59859;BME280;45734;53.648;9.566;2022-10-31T17:02:54;101797.00;;;11.88;100.00
59859;BME280;45734;53.648;9.566;2022-10-31T17:07:56;101793.75;;;11.84;100.00
59859;BME280;45734;53.648;9.566;2022-10-31T17:12:57;101802.59;;;11.85;100.00
59859;BME280;45734;53.648;9.566;2022-10-31T17:17:59;101801.16;;;11.81;100.00
59859;BME280;45734;53.648;9.566;2022-10-31T17:22:59;101801.03;;;11.82;100.00
59859;BME280;45734;53.648;9.566;2022-10-31T17:27:59;101805.84;;;11.78;100.00
59859;BME280;45734;53.648;9.566;2022-10-31T17:33:00;101795.44;;;11.75;100.00
59859;BME280;45734;53.648;9.566;2022-10-31T17:38:00;101793.06;;;11.72;100.00
59859;BME280;45734;53.648;9.566;2022-10-31T17:43:00;101779.84;;;11.71;100.00
59859;BME280;45734;53.648;9.566;2022-10-31T17:48:00;101790.41;;;11.72;100.00
59859;BME280;45734;53.648;9.566;2022-10-31T17:53:01;101776.34;;;11.70;100.00
59859;BME280;45734;53.648;9.566;2022-10-31T17:58:01;101775.63;;;11.68;100.00
59859;BME280;45734;53.648;9.566;2022-10-31T18:03:02;101769.75;;;11.65;100.00
59859;BME280;45734;53.648;9.566;2022-10-31T18:08:03;101765.69;;;11.61;100.00
59859;BME280;45734;53.648;9.566;2022-10-31T18:13:04;101766.94;;;11.56;100.00
59859;BME280;45734;53.648;9.566;2022-10-31T18:18:05;101769.78;;;11.55;100.00
59859;BME280;45734;53.648;9.566;2022-10-31T18:23:06;101747.84;;;11.51;100.00
59859;BME280;45734;53.648;9.566;2022-10-31T18:28:06;101722.88;;;11.43;100.00
59859;BME280;45734;53.648;9.566;2022-10-31T18:33:07;101712.63;;;11.38;100.00
59859;BME280;45734;53.648;9.566;2022-10-31T18:38:08;101718.09;;;11.37;100.00
59859;BME280;45734;53.648;9.566;2022-10-31T18:43:08;101720.09;;;11.35;100.00
59859;BME280;45734;53.648;9.566;2022-10-31T18:48:11;101723.06;;;11.31;100.00
59859;BME280;45734;53.648;9.566;2022-10-31T18:53:12;101712.63;;;11.28;100.00
59859;BME280;45734;53.648;9.566;2022-10-31T18:58:13;101721.63;;;11.27;100.00
59859;BME280;45734;53.648;9.566;2022-10-31T19:03:13;101713.06;;;11.24;100.00
59859;BME280;45734;53.648;9.566;2022-10-31T19:08:14;101706.59;;;11.17;100.00
59859;BME280;45734;53.648;9.566;2022-10-31T19:13:15;101704.94;;;11.16;100.00
59859;BME280;45734;53.648;9.566;2022-10-31T19:18:15;101683.06;;;11.12;100.00
59859;BME280;45734;53.648;9.566;2022-10-31T19:23:15;101679.69;;;11.10;100.00
59859;BME280;45734;53.648;9.566;2022-10-31T19:28:16;101664.69;;;11.09;100.00
59859;BME280;45734;53.648;9.566;2022-10-31T19:33:16;101654.28;;;11.06;100.00
59859;BME280;45734;53.648;9.566;2022-10-31T19:38:17;101642.91;;;11.04;100.00
59859;BME280;45734;53.648;9.566;2022-10-31T19:43:17;101638.59;;;11.03;100.00
59859;BME280;45734;53.648;9.566;2022-10-31T19:48:17;101631.56;;;11.02;100.00
59859;BME280;45734;53.648;9.566;2022-10-31T19:53:19;101623.72;;;11.00;100.00
59859;BME280;45734;53.648;9.566;2022-10-31T19:58:19;101617.53;;;11.00;100.00
59859;BME280;45734;53.648;9.566;2022-10-31T20:03:20;101598.47;;;10.95;100.00
59859;BME280;45734;53.648;9.566;2022-10-31T20:08:20;101600.41;;;10.93;100.00
59859;BME280;45734;53.648;9.566;2022-10-31T20:13:21;101584.59;;;10.91;100.00
59859;BME280;45734;53.648;9.566;2022-10-31T20:18:22;101583.59;;;10.92;100.00
59859;BME280;45734;53.648;9.566;2022-10-31T20:23:24;101573.47;;;10.96;100.00
59859;BME280;45734;53.648;9.566;2022-10-31T20:28:25;101592.84;;;10.98;100.00
59859;BME280;45734;53.648;9.566;2022-10-31T20:33:26;101583.56;;;11.02;100.00
59859;BME280;45734;53.648;9.566;2022-10-31T20:38:26;101565.75;;;11.02;100.00
59859;BME280;45734;53.648;9.566;2022-10-31T20:43:27;101571.78;;;11.04;100.00
59859;BME280;45734;53.648;9.566;2022-10-31T20:48:28;101573.19;;;11.08;100.00
59859;BME280;45734;53.648;9.566;2022-10-31T20:53:29;101556.75;;;11.13;100.00
59859;BME280;45734;53.648;9.566;2022-10-31T20:58:29;101550.81;;;11.19;100.00
59859;BME280;45734;53.648;9.566;2022-10-31T21:03:30;101543.09;;;11.26;100.00
59859;BME280;45734;53.648;9.566;2022-10-31T21:08:30;101541.53;;;11.33;100.00
59859;BME280;45734;53.648;9.566;2022-10-31T21:13:34;101532.38;;;11.36;100.00
59859;BME280;45734;53.648;9.566;2022-10-31T21:18:35;101526.47;;;11.42;100.00
59859;BME280;45734;53.648;9.566;2022-10-31T21:23:37;101508.19;;;11.47;100.00
59859;BME280;45734;53.648;9.566;2022-10-31T21:28:37;101503.41;;;11.50;100.00
59859;BME280;45734;53.648;9.566;2022-10-31T21:33:38;101507.59;;;11.53;100.00
59859;BME280;45734;53.648;9.566;2022-10-31T21:38:39;101509.78;;;11.57;100.00
59859;BME280;45734;53.648;9.566;2022-10-31T21:43:41;101498.00;;;11.60;100.00
59859;BME280;45734;53.648;9.566;2022-10-31T21:48:43;101480.19;;;11.61;100.00
59859;BME280;45734;53.648;9.566;2022-10-31T21:53:43;101481.84;;;11.62;100.00
59859;BME280;45734;53.648;9.566;2022-10-31T21:59:03;101478.88;;;11.65;100.00
59859;BME280;45734;53.648;9.566;2022-10-31T22:04:04;101463.69;;;11.65;100.00
59859;BME280;45734;53.648;9.566;2022-10-31T22:09:06;101448.53;;;11.66;100.00
59859;BME280;45734;53.648;9.566;2022-10-31T22:14:13;101440.50;;;11.66;100.00
59859;BME280;45734;53.648;9.566;2022-10-31T22:19:13;101422.97;;;11.63;100.00
59859;BME280;45734;53.648;9.566;2022-10-31T22:24:15;101441.13;;;11.60;100.00
59859;BME280;45734;53.648;9.566;2022-10-31T22:29:17;101436.78;;;11.59;100.00
59859;BME280;45734;53.648;9.566;2022-10-31T22:34:18;101415.75;;;11.55;100.00
59859;BME280;45734;53.648;9.566;2022-10-31T22:39:18;101410.84;;;11.51;100.00
59859;BME280;45734;53.648;9.566;2022-10-31T22:44:18;101413.81;;;11.48;100.00
59859;BME280;45734;53.648;9.566;2022-10-31T22:49:18;101422.13;;;11.45;100.00
59859;BME280;45734;53.648;9.566;2022-10-31T22:54:19;101421.69;;;11.49;100.00
59859;BME280;45734;53.648;9.566;2022-10-31T22:59:19;101414.34;;;11.51;100.00
59859;BME280;45734;53.648;9.566;2022-10-31T23:04:20;101406.34;;;11.51;100.00
59859;BME280;45734;53.648;9.566;2022-10-31T23:09:20;101385.16;;;11.50;100.00
59859;BME280;45734;53.648;9.566;2022-10-31T23:14:21;101390.19;;;11.53;100.00
59859;BME280;45734;53.648;9.566;2022-10-31T23:19:22;101370.84;;;11.51;100.00
59859;BME280;45734;53.648;9.566;2022-10-31T23:29:24;101353.59;;;11.45;100.00
59859;BME280;45734;53.648;9.566;2022-10-31T23:34:24;101354.75;;;11.43;100.00
59859;BME280;45734;53.648;9.566;2022-10-31T23:39:25;101333.03;;;11.38;100.00
59859;BME280;45734;53.648;9.566;2022-10-31T23:44:25;101339.50;;;11.35;100.00
59859;BME280;45734;53.648;9.566;2022-10-31T23:49:26;101320.97;;;11.33;100.00
59859;BME280;45734;53.648;9.566;2022-10-31T23:54:26;101319.47;;;11.31;100.00
59859;BME280;45734;53.648;9.566;2022-10-31T23:59:27;101311.63;;;11.29;100.00
